<?xml version="1.0" encoding="utf-8"?>
<gpx xmlns:xsi="http://www.w3.org/2001/XMLSchema-instance" xmlns:xsd="http://www.w3.org/2001/XMLSchema" version="1.1" creator="Shapelink.com" xmlns="http://www.topografix.com/GPX/1/1" xmlns:gpxtpx="http://www.garmin.com/xmlschemas/TrackPointExtension/v1">
  <metadata>
    <name>Löpning 7.30 km, 2014-05-21</name>
    <desc></desc>
    <author><name>Carl Grundberg</name></author> 
    <time>2014-05-21T17:44:05Z</time>
  </metadata>
  <trk>
    <name>Löpning 7.30 km, 2014-05-21</name>
    <trkseg>
      <trkpt lat="56.3474452" lon="13.6469982">
        <ele>38.5901</ele>
        <time>2014-05-21T17:44:05Z</time>
      </trkpt>
      <trkpt lat="56.3475993" lon="13.6472085">
        <ele>53.0098</ele>
        <time>2014-05-21T17:44:06Z</time>
      </trkpt>
      <trkpt lat="56.3476715" lon="13.6478654">
        <ele>113.092</ele>
        <time>2014-05-21T17:44:14Z</time>
      </trkpt>
      <trkpt lat="56.3475451" lon="13.6480155">
        <ele>114.534</ele>
        <time>2014-05-21T17:44:17Z</time>
      </trkpt>
      <trkpt lat="56.3472965" lon="13.6483108">
        <ele>114.534</ele>
        <time>2014-05-21T17:44:24Z</time>
      </trkpt>
      <trkpt lat="56.3470806" lon="13.6485782">
        <ele>114.534</ele>
        <time>2014-05-21T17:44:30Z</time>
      </trkpt>
      <trkpt lat="56.3468874" lon="13.648805">
        <ele>114.054</ele>
        <time>2014-05-21T17:44:35Z</time>
      </trkpt>
      <trkpt lat="56.3466015" lon="13.6491521">
        <ele>114.534</ele>
        <time>2014-05-21T17:44:42Z</time>
      </trkpt>
      <trkpt lat="56.3463635" lon="13.6494267">
        <ele>113.092</ele>
        <time>2014-05-21T17:44:48Z</time>
      </trkpt>
      <trkpt lat="56.3460704" lon="13.6497732">
        <ele>112.131</ele>
        <time>2014-05-21T17:44:55Z</time>
      </trkpt>
      <trkpt lat="56.3457202" lon="13.6501665">
        <ele>112.131</ele>
        <time>2014-05-21T17:45:03Z</time>
      </trkpt>
      <trkpt lat="56.3453768" lon="13.650559">
        <ele>112.612</ele>
        <time>2014-05-21T17:45:11Z</time>
      </trkpt>
      <trkpt lat="56.3450829" lon="13.6508952">
        <ele>112.612</ele>
        <time>2014-05-21T17:45:18Z</time>
      </trkpt>
      <trkpt lat="56.3447526" lon="13.6512645">
        <ele>110.689</ele>
        <time>2014-05-21T17:45:25Z</time>
      </trkpt>
      <trkpt lat="56.3444366" lon="13.6516168">
        <ele>107.324</ele>
        <time>2014-05-21T17:45:30Z</time>
      </trkpt>
      <trkpt lat="56.3443812" lon="13.6516722">
        <ele>106.844</ele>
        <time>2014-05-21T17:45:31Z</time>
      </trkpt>
      <trkpt lat="56.3441686" lon="13.651724">
        <ele>106.363</ele>
        <time>2014-05-21T17:45:35Z</time>
      </trkpt>
      <trkpt lat="56.3439087" lon="13.6517208">
        <ele>106.363</ele>
        <time>2014-05-21T17:45:40Z</time>
      </trkpt>
      <trkpt lat="56.3436526" lon="13.6519433">
        <ele>105.882</ele>
        <time>2014-05-21T17:45:45Z</time>
      </trkpt>
      <trkpt lat="56.3432368" lon="13.6521555">
        <ele>106.363</ele>
        <time>2014-05-21T17:45:53Z</time>
      </trkpt>
      <trkpt lat="56.3430857" lon="13.6522005">
        <ele>106.844</ele>
        <time>2014-05-21T17:45:56Z</time>
      </trkpt>
      <trkpt lat="56.3427796" lon="13.6522108">
        <ele>107.805</ele>
        <time>2014-05-21T17:46:03Z</time>
      </trkpt>
      <trkpt lat="56.3426142" lon="13.6524124">
        <ele>107.324</ele>
        <time>2014-05-21T17:46:08Z</time>
      </trkpt>
      <trkpt lat="56.3426054" lon="13.6524877">
        <ele>107.324</ele>
        <time>2014-05-21T17:46:09Z</time>
      </trkpt>
      <trkpt lat="56.3425848" lon="13.6528989">
        <ele>107.805</ele>
        <time>2014-05-21T17:46:14Z</time>
      </trkpt>
      <trkpt lat="56.342593" lon="13.6531713">
        <ele>107.805</ele>
        <time>2014-05-21T17:46:17Z</time>
      </trkpt>
      <trkpt lat="56.3424788" lon="13.6534289">
        <ele>107.805</ele>
        <time>2014-05-21T17:46:21Z</time>
      </trkpt>
      <trkpt lat="56.3424314" lon="13.653441">
        <ele>107.805</ele>
        <time>2014-05-21T17:46:22Z</time>
      </trkpt>
      <trkpt lat="56.3420506" lon="13.6534633">
        <ele>107.805</ele>
        <time>2014-05-21T17:46:30Z</time>
      </trkpt>
      <trkpt lat="56.3417168" lon="13.6534985">
        <ele>108.286</ele>
        <time>2014-05-21T17:46:37Z</time>
      </trkpt>
      <trkpt lat="56.3416232" lon="13.6535118">
        <ele>108.766</ele>
        <time>2014-05-21T17:46:39Z</time>
      </trkpt>
      <trkpt lat="56.341176" lon="13.6534291">
        <ele>109.247</ele>
        <time>2014-05-21T17:46:49Z</time>
      </trkpt>
      <trkpt lat="56.3409409" lon="13.653326">
        <ele>110.208</ele>
        <time>2014-05-21T17:46:55Z</time>
      </trkpt>
      <trkpt lat="56.3409032" lon="13.6533034">
        <ele>110.689</ele>
        <time>2014-05-21T17:46:56Z</time>
      </trkpt>
      <trkpt lat="56.3406085" lon="13.6531687">
        <ele>109.728</ele>
        <time>2014-05-21T17:47:03Z</time>
      </trkpt>
      <trkpt lat="56.3402972" lon="13.6529999">
        <ele>109.247</ele>
        <time>2014-05-21T17:47:10Z</time>
      </trkpt>
      <trkpt lat="56.340105" lon="13.6528811">
        <ele>109.728</ele>
        <time>2014-05-21T17:47:14Z</time>
      </trkpt>
      <trkpt lat="56.3399194" lon="13.6527673">
        <ele>109.728</ele>
        <time>2014-05-21T17:47:18Z</time>
      </trkpt>
      <trkpt lat="56.3396054" lon="13.6525635">
        <ele>110.689</ele>
        <time>2014-05-21T17:47:25Z</time>
      </trkpt>
      <trkpt lat="56.3392765" lon="13.6523405">
        <ele>110.208</ele>
        <time>2014-05-21T17:47:32Z</time>
      </trkpt>
      <trkpt lat="56.338899" lon="13.6520514">
        <ele>109.247</ele>
        <time>2014-05-21T17:47:40Z</time>
      </trkpt>
      <trkpt lat="56.3386411" lon="13.6516619">
        <ele>108.286</ele>
        <time>2014-05-21T17:47:46Z</time>
      </trkpt>
      <trkpt lat="56.33861" lon="13.6515928">
        <ele>108.286</ele>
        <time>2014-05-21T17:47:47Z</time>
      </trkpt>
      <trkpt lat="56.3385546" lon="13.6514909">
        <ele>108.286</ele>
        <time>2014-05-21T17:47:49Z</time>
      </trkpt>
      <trkpt lat="56.3384467" lon="13.6512397">
        <ele>108.286</ele>
        <time>2014-05-21T17:47:55Z</time>
      </trkpt>
      <trkpt lat="56.338371" lon="13.651021">
        <ele>108.766</ele>
        <time>2014-05-21T17:48:00Z</time>
      </trkpt>
      <trkpt lat="56.3383509" lon="13.6509893">
        <ele>108.286</ele>
        <time>2014-05-21T17:48:04Z</time>
      </trkpt>
      <trkpt lat="56.3383468" lon="13.6509919">
        <ele>108.286</ele>
        <time>2014-05-21T17:48:09Z</time>
      </trkpt>
      <trkpt lat="56.3383216" lon="13.6508025">
        <ele>107.805</ele>
        <time>2014-05-21T17:48:14Z</time>
      </trkpt>
      <trkpt lat="56.3383448" lon="13.6505747">
        <ele>108.286</ele>
        <time>2014-05-21T17:48:19Z</time>
      </trkpt>
      <trkpt lat="56.338362" lon="13.6503763">
        <ele>108.766</ele>
        <time>2014-05-21T17:48:23Z</time>
      </trkpt>
      <trkpt lat="56.3383988" lon="13.6501918">
        <ele>109.247</ele>
        <time>2014-05-21T17:48:27Z</time>
      </trkpt>
      <trkpt lat="56.3384257" lon="13.6500488">
        <ele>110.208</ele>
        <time>2014-05-21T17:48:30Z</time>
      </trkpt>
      <trkpt lat="56.3384516" lon="13.6497504">
        <ele>112.612</ele>
        <time>2014-05-21T17:48:36Z</time>
      </trkpt>
      <trkpt lat="56.3385183" lon="13.6494914">
        <ele>114.054</ele>
        <time>2014-05-21T17:48:42Z</time>
      </trkpt>
      <trkpt lat="56.3385904" lon="13.6493547">
        <ele>114.534</ele>
        <time>2014-05-21T17:48:46Z</time>
      </trkpt>
      <trkpt lat="56.3386236" lon="13.6492423">
        <ele>115.015</ele>
        <time>2014-05-21T17:48:49Z</time>
      </trkpt>
      <trkpt lat="56.3385665" lon="13.6489698">
        <ele>116.938</ele>
        <time>2014-05-21T17:48:55Z</time>
      </trkpt>
      <trkpt lat="56.3385546" lon="13.6489181">
        <ele>117.418</ele>
        <time>2014-05-21T17:48:56Z</time>
      </trkpt>
      <trkpt lat="56.3385323" lon="13.6488077">
        <ele>118.379</ele>
        <time>2014-05-21T17:48:58Z</time>
      </trkpt>
      <trkpt lat="56.3385032" lon="13.6487061">
        <ele>119.341</ele>
        <time>2014-05-21T17:49:00Z</time>
      </trkpt>
      <trkpt lat="56.3384858" lon="13.648428">
        <ele>122.225</ele>
        <time>2014-05-21T17:49:05Z</time>
      </trkpt>
      <trkpt lat="56.3384722" lon="13.6481498">
        <ele>124.147</ele>
        <time>2014-05-21T17:49:10Z</time>
      </trkpt>
      <trkpt lat="56.3384676" lon="13.6481033">
        <ele>124.147</ele>
        <time>2014-05-21T17:49:11Z</time>
      </trkpt>
      <trkpt lat="56.3384454" lon="13.6480109">
        <ele>124.628</ele>
        <time>2014-05-21T17:49:13Z</time>
      </trkpt>
      <trkpt lat="56.3384197" lon="13.6479518">
        <ele>125.109</ele>
        <time>2014-05-21T17:49:15Z</time>
      </trkpt>
      <trkpt lat="56.3383971" lon="13.647938">
        <ele>125.589</ele>
        <time>2014-05-21T17:49:17Z</time>
      </trkpt>
      <trkpt lat="56.3383023" lon="13.6479978">
        <ele>124.147</ele>
        <time>2014-05-21T17:49:22Z</time>
      </trkpt>
      <trkpt lat="56.3382158" lon="13.647924">
        <ele>123.186</ele>
        <time>2014-05-21T17:49:25Z</time>
      </trkpt>
      <trkpt lat="56.3382018" lon="13.647804">
        <ele>122.705</ele>
        <time>2014-05-21T17:49:27Z</time>
      </trkpt>
      <trkpt lat="56.3382068" lon="13.6474172">
        <ele>120.783</ele>
        <time>2014-05-21T17:49:34Z</time>
      </trkpt>
      <trkpt lat="56.3381382" lon="13.6470895">
        <ele>119.821</ele>
        <time>2014-05-21T17:49:40Z</time>
      </trkpt>
      <trkpt lat="56.3379844" lon="13.6469672">
        <ele>118.86</ele>
        <time>2014-05-21T17:49:45Z</time>
      </trkpt>
      <trkpt lat="56.3377858" lon="13.6468541">
        <ele>117.899</ele>
        <time>2014-05-21T17:49:51Z</time>
      </trkpt>
      <trkpt lat="56.3376481" lon="13.6467563">
        <ele>117.899</ele>
        <time>2014-05-21T17:49:56Z</time>
      </trkpt>
      <trkpt lat="56.337489" lon="13.6466181">
        <ele>118.379</ele>
        <time>2014-05-21T17:50:02Z</time>
      </trkpt>
      <trkpt lat="56.3373878" lon="13.6465098">
        <ele>118.86</ele>
        <time>2014-05-21T17:50:06Z</time>
      </trkpt>
      <trkpt lat="56.3372658" lon="13.6462776">
        <ele>119.341</ele>
        <time>2014-05-21T17:50:12Z</time>
      </trkpt>
      <trkpt lat="56.3372151" lon="13.6460809">
        <ele>120.302</ele>
        <time>2014-05-21T17:50:16Z</time>
      </trkpt>
      <trkpt lat="56.33717" lon="13.6458348">
        <ele>120.302</ele>
        <time>2014-05-21T17:50:21Z</time>
      </trkpt>
      <trkpt lat="56.3371643" lon="13.6456166">
        <ele>120.783</ele>
        <time>2014-05-21T17:50:25Z</time>
      </trkpt>
      <trkpt lat="56.3371674" lon="13.6454166">
        <ele>121.264</ele>
        <time>2014-05-21T17:50:29Z</time>
      </trkpt>
      <trkpt lat="56.3371171" lon="13.6451327">
        <ele>122.225</ele>
        <time>2014-05-21T17:50:35Z</time>
      </trkpt>
      <trkpt lat="56.3370556" lon="13.6450167">
        <ele>122.225</ele>
        <time>2014-05-21T17:50:38Z</time>
      </trkpt>
      <trkpt lat="56.3370068" lon="13.6446864">
        <ele>123.186</ele>
        <time>2014-05-21T17:50:45Z</time>
      </trkpt>
      <trkpt lat="56.3370192" lon="13.64443">
        <ele>123.667</ele>
        <time>2014-05-21T17:50:50Z</time>
      </trkpt>
      <trkpt lat="56.3370461" lon="13.6441226">
        <ele>124.147</ele>
        <time>2014-05-21T17:50:56Z</time>
      </trkpt>
      <trkpt lat="56.3370301" lon="13.6439014">
        <ele>124.147</ele>
        <time>2014-05-21T17:51:01Z</time>
      </trkpt>
      <trkpt lat="56.3369306" lon="13.643701">
        <ele>125.109</ele>
        <time>2014-05-21T17:51:06Z</time>
      </trkpt>
      <trkpt lat="56.3368119" lon="13.6435825">
        <ele>125.109</ele>
        <time>2014-05-21T17:51:09Z</time>
      </trkpt>
      <trkpt lat="56.3366657" lon="13.6434632">
        <ele>125.109</ele>
        <time>2014-05-21T17:51:14Z</time>
      </trkpt>
      <trkpt lat="56.336572" lon="13.64335">
        <ele>125.589</ele>
        <time>2014-05-21T17:51:18Z</time>
      </trkpt>
      <trkpt lat="56.3363675" lon="13.6432779">
        <ele>125.109</ele>
        <time>2014-05-21T17:51:25Z</time>
      </trkpt>
      <trkpt lat="56.336242" lon="13.6432288">
        <ele>124.147</ele>
        <time>2014-05-21T17:51:29Z</time>
      </trkpt>
      <trkpt lat="56.3362141" lon="13.6431996">
        <ele>124.147</ele>
        <time>2014-05-21T17:51:30Z</time>
      </trkpt>
      <trkpt lat="56.3360655" lon="13.64309">
        <ele>123.186</ele>
        <time>2014-05-21T17:51:35Z</time>
      </trkpt>
      <trkpt lat="56.3359805" lon="13.6429518">
        <ele>122.225</ele>
        <time>2014-05-21T17:51:39Z</time>
      </trkpt>
      <trkpt lat="56.3358942" lon="13.6427643">
        <ele>119.821</ele>
        <time>2014-05-21T17:51:43Z</time>
      </trkpt>
      <trkpt lat="56.3358732" lon="13.6427081">
        <ele>119.341</ele>
        <time>2014-05-21T17:51:44Z</time>
      </trkpt>
      <trkpt lat="56.3357578" lon="13.6424134">
        <ele>117.418</ele>
        <time>2014-05-21T17:51:50Z</time>
      </trkpt>
      <trkpt lat="56.3356639" lon="13.6422135">
        <ele>117.418</ele>
        <time>2014-05-21T17:51:55Z</time>
      </trkpt>
      <trkpt lat="56.3355282" lon="13.6419177">
        <ele>118.86</ele>
        <time>2014-05-21T17:52:02Z</time>
      </trkpt>
      <trkpt lat="56.3355111" lon="13.6418837">
        <ele>118.86</ele>
        <time>2014-05-21T17:52:03Z</time>
      </trkpt>
      <trkpt lat="56.3354536" lon="13.6418257">
        <ele>119.341</ele>
        <time>2014-05-21T17:52:06Z</time>
      </trkpt>
      <trkpt lat="56.335342" lon="13.6419041">
        <ele>119.821</ele>
        <time>2014-05-21T17:52:11Z</time>
      </trkpt>
      <trkpt lat="56.3352993" lon="13.6419523">
        <ele>120.302</ele>
        <time>2014-05-21T17:52:13Z</time>
      </trkpt>
      <trkpt lat="56.3351518" lon="13.6420575">
        <ele>119.821</ele>
        <time>2014-05-21T17:52:19Z</time>
      </trkpt>
      <trkpt lat="56.335042" lon="13.6421641">
        <ele>119.821</ele>
        <time>2014-05-21T17:52:24Z</time>
      </trkpt>
      <trkpt lat="56.3349502" lon="13.6422973">
        <ele>120.783</ele>
        <time>2014-05-21T17:52:29Z</time>
      </trkpt>
      <trkpt lat="56.334827" lon="13.6425843">
        <ele>121.744</ele>
        <time>2014-05-21T17:52:36Z</time>
      </trkpt>
      <trkpt lat="56.3347332" lon="13.6427841">
        <ele>121.264</ele>
        <time>2014-05-21T17:52:41Z</time>
      </trkpt>
      <trkpt lat="56.3346151" lon="13.6430303">
        <ele>122.225</ele>
        <time>2014-05-21T17:52:48Z</time>
      </trkpt>
      <trkpt lat="56.3345375" lon="13.6432331">
        <ele>122.705</ele>
        <time>2014-05-21T17:52:53Z</time>
      </trkpt>
      <trkpt lat="56.3344598" lon="13.643399">
        <ele>121.744</ele>
        <time>2014-05-21T17:52:58Z</time>
      </trkpt>
      <trkpt lat="56.3343752" lon="13.6436021">
        <ele>121.744</ele>
        <time>2014-05-21T17:53:04Z</time>
      </trkpt>
      <trkpt lat="56.3343036" lon="13.6438125">
        <ele>121.744</ele>
        <time>2014-05-21T17:53:10Z</time>
      </trkpt>
      <trkpt lat="56.3342407" lon="13.644029">
        <ele>123.186</ele>
        <time>2014-05-21T17:53:16Z</time>
      </trkpt>
      <trkpt lat="56.3341941" lon="13.6442591">
        <ele>123.667</ele>
        <time>2014-05-21T17:53:22Z</time>
      </trkpt>
      <trkpt lat="56.3341499" lon="13.6444947">
        <ele>125.109</ele>
        <time>2014-05-21T17:53:28Z</time>
      </trkpt>
      <trkpt lat="56.3341261" lon="13.644575">
        <ele>125.589</ele>
        <time>2014-05-21T17:53:30Z</time>
      </trkpt>
      <trkpt lat="56.3340956" lon="13.6446832">
        <ele>126.07</ele>
        <time>2014-05-21T17:53:33Z</time>
      </trkpt>
      <trkpt lat="56.3340671" lon="13.6448557">
        <ele>126.551</ele>
        <time>2014-05-21T17:53:38Z</time>
      </trkpt>
      <trkpt lat="56.3340177" lon="13.6451131">
        <ele>127.031</ele>
        <time>2014-05-21T17:53:44Z</time>
      </trkpt>
      <trkpt lat="56.3339769" lon="13.6454095">
        <ele>127.031</ele>
        <time>2014-05-21T17:53:50Z</time>
      </trkpt>
      <trkpt lat="56.3339324" lon="13.6457167">
        <ele>127.031</ele>
        <time>2014-05-21T17:53:56Z</time>
      </trkpt>
      <trkpt lat="56.3339095" lon="13.6459524">
        <ele>128.954</ele>
        <time>2014-05-21T17:54:01Z</time>
      </trkpt>
      <trkpt lat="56.3339058" lon="13.6459959">
        <ele>129.435</ele>
        <time>2014-05-21T17:54:02Z</time>
      </trkpt>
      <trkpt lat="56.3339355" lon="13.6461337">
        <ele>129.915</ele>
        <time>2014-05-21T17:54:06Z</time>
      </trkpt>
      <trkpt lat="56.3339376" lon="13.6461501">
        <ele>130.396</ele>
        <time>2014-05-21T17:54:09Z</time>
      </trkpt>
      <trkpt lat="56.3338529" lon="13.646157">
        <ele>129.435</ele>
        <time>2014-05-21T17:54:14Z</time>
      </trkpt>
      <trkpt lat="56.3337339" lon="13.6463378">
        <ele>128.954</ele>
        <time>2014-05-21T17:54:20Z</time>
      </trkpt>
      <trkpt lat="56.3336967" lon="13.6464207">
        <ele>128.473</ele>
        <time>2014-05-21T17:54:22Z</time>
      </trkpt>
      <trkpt lat="56.3335846" lon="13.6465776">
        <ele>129.435</ele>
        <time>2014-05-21T17:54:27Z</time>
      </trkpt>
      <trkpt lat="56.3334625" lon="13.6466305">
        <ele>129.915</ele>
        <time>2014-05-21T17:54:31Z</time>
      </trkpt>
      <trkpt lat="56.3333185" lon="13.6467654">
        <ele>130.396</ele>
        <time>2014-05-21T17:54:37Z</time>
      </trkpt>
      <trkpt lat="56.3332694" lon="13.6470272">
        <ele>131.838</ele>
        <time>2014-05-21T17:54:42Z</time>
      </trkpt>
      <trkpt lat="56.333257" lon="13.6473731">
        <ele>132.799</ele>
        <time>2014-05-21T17:54:48Z</time>
      </trkpt>
      <trkpt lat="56.3331942" lon="13.6477204">
        <ele>133.28</ele>
        <time>2014-05-21T17:54:55Z</time>
      </trkpt>
      <trkpt lat="56.3330987" lon="13.6480456">
        <ele>134.722</ele>
        <time>2014-05-21T17:55:02Z</time>
      </trkpt>
      <trkpt lat="56.3330342" lon="13.6483366">
        <ele>136.164</ele>
        <time>2014-05-21T17:55:09Z</time>
      </trkpt>
      <trkpt lat="56.3329434" lon="13.6485821">
        <ele>136.164</ele>
        <time>2014-05-21T17:55:15Z</time>
      </trkpt>
      <trkpt lat="56.332833" lon="13.6487533">
        <ele>135.683</ele>
        <time>2014-05-21T17:55:20Z</time>
      </trkpt>
      <trkpt lat="56.3327078" lon="13.6489012">
        <ele>134.722</ele>
        <time>2014-05-21T17:55:26Z</time>
      </trkpt>
      <trkpt lat="56.33263" lon="13.6491262">
        <ele>133.28</ele>
        <time>2014-05-21T17:55:32Z</time>
      </trkpt>
      <trkpt lat="56.332611" lon="13.6494313">
        <ele>132.319</ele>
        <time>2014-05-21T17:55:38Z</time>
      </trkpt>
      <trkpt lat="56.3326002" lon="13.6496969">
        <ele>131.357</ele>
        <time>2014-05-21T17:55:43Z</time>
      </trkpt>
      <trkpt lat="56.3325968" lon="13.6500097">
        <ele>130.877</ele>
        <time>2014-05-21T17:55:49Z</time>
      </trkpt>
      <trkpt lat="56.3325833" lon="13.6503725">
        <ele>129.915</ele>
        <time>2014-05-21T17:55:56Z</time>
      </trkpt>
      <trkpt lat="56.3325586" lon="13.6506554">
        <ele>130.877</ele>
        <time>2014-05-21T17:56:02Z</time>
      </trkpt>
      <trkpt lat="56.3325484" lon="13.6509299">
        <ele>131.357</ele>
        <time>2014-05-21T17:56:08Z</time>
      </trkpt>
      <trkpt lat="56.3325522" lon="13.6512147">
        <ele>132.319</ele>
        <time>2014-05-21T17:56:14Z</time>
      </trkpt>
      <trkpt lat="56.3325672" lon="13.6514951">
        <ele>132.799</ele>
        <time>2014-05-21T17:56:20Z</time>
      </trkpt>
      <trkpt lat="56.3325828" lon="13.651583">
        <ele>133.28</ele>
        <time>2014-05-21T17:56:22Z</time>
      </trkpt>
      <trkpt lat="56.3326522" lon="13.6515934">
        <ele>130.877</ele>
        <time>2014-05-21T17:56:26Z</time>
      </trkpt>
      <trkpt lat="56.3328026" lon="13.6515332">
        <ele>127.993</ele>
        <time>2014-05-21T17:56:32Z</time>
      </trkpt>
      <trkpt lat="56.3329254" lon="13.6515405">
        <ele>127.512</ele>
        <time>2014-05-21T17:56:37Z</time>
      </trkpt>
      <trkpt lat="56.3330326" lon="13.6515493">
        <ele>127.512</ele>
        <time>2014-05-21T17:56:41Z</time>
      </trkpt>
      <trkpt lat="56.3331016" lon="13.6515516">
        <ele>126.551</ele>
        <time>2014-05-21T17:56:45Z</time>
      </trkpt>
      <trkpt lat="56.3332329" lon="13.6515581">
        <ele>126.07</ele>
        <time>2014-05-21T17:56:51Z</time>
      </trkpt>
      <trkpt lat="56.3332709" lon="13.6516073">
        <ele>125.589</ele>
        <time>2014-05-21T17:56:53Z</time>
      </trkpt>
      <trkpt lat="56.3333413" lon="13.6518147">
        <ele>124.628</ele>
        <time>2014-05-21T17:56:58Z</time>
      </trkpt>
      <trkpt lat="56.3334325" lon="13.6520114">
        <ele>123.667</ele>
        <time>2014-05-21T17:57:04Z</time>
      </trkpt>
      <trkpt lat="56.3334482" lon="13.6520293">
        <ele>123.186</ele>
        <time>2014-05-21T17:57:05Z</time>
      </trkpt>
      <trkpt lat="56.3335217" lon="13.6520886">
        <ele>122.705</ele>
        <time>2014-05-21T17:57:09Z</time>
      </trkpt>
      <trkpt lat="56.3336305" lon="13.6521201">
        <ele>122.705</ele>
        <time>2014-05-21T17:57:13Z</time>
      </trkpt>
      <trkpt lat="56.3337814" lon="13.6520395">
        <ele>122.705</ele>
        <time>2014-05-21T17:57:18Z</time>
      </trkpt>
      <trkpt lat="56.3338944" lon="13.6520639">
        <ele>122.705</ele>
        <time>2014-05-21T17:57:22Z</time>
      </trkpt>
      <trkpt lat="56.3339522" lon="13.6521079">
        <ele>122.225</ele>
        <time>2014-05-21T17:57:24Z</time>
      </trkpt>
      <trkpt lat="56.3341044" lon="13.6522667">
        <ele>122.225</ele>
        <time>2014-05-21T17:57:29Z</time>
      </trkpt>
      <trkpt lat="56.3341846" lon="13.6523934">
        <ele>121.744</ele>
        <time>2014-05-21T17:57:32Z</time>
      </trkpt>
      <trkpt lat="56.3342454" lon="13.6525856">
        <ele>121.264</ele>
        <time>2014-05-21T17:57:36Z</time>
      </trkpt>
      <trkpt lat="56.3343053" lon="13.6528119">
        <ele>120.783</ele>
        <time>2014-05-21T17:57:40Z</time>
      </trkpt>
      <trkpt lat="56.3343552" lon="13.6529579">
        <ele>121.264</ele>
        <time>2014-05-21T17:57:43Z</time>
      </trkpt>
      <trkpt lat="56.3344831" lon="13.6531064">
        <ele>122.225</ele>
        <time>2014-05-21T17:57:48Z</time>
      </trkpt>
      <trkpt lat="56.3346238" lon="13.6531651">
        <ele>122.225</ele>
        <time>2014-05-21T17:57:53Z</time>
      </trkpt>
      <trkpt lat="56.3347788" lon="13.6532107">
        <ele>122.705</ele>
        <time>2014-05-21T17:57:58Z</time>
      </trkpt>
      <trkpt lat="56.3349109" lon="13.6531434">
        <ele>124.147</ele>
        <time>2014-05-21T17:58:03Z</time>
      </trkpt>
      <trkpt lat="56.3349331" lon="13.6531158">
        <ele>124.147</ele>
        <time>2014-05-21T17:58:04Z</time>
      </trkpt>
      <trkpt lat="56.3351151" lon="13.6530481">
        <ele>124.628</ele>
        <time>2014-05-21T17:58:11Z</time>
      </trkpt>
      <trkpt lat="56.3351961" lon="13.6530409">
        <ele>125.109</ele>
        <time>2014-05-21T17:58:14Z</time>
      </trkpt>
      <trkpt lat="56.3352922" lon="13.6530274">
        <ele>125.109</ele>
        <time>2014-05-21T17:58:18Z</time>
      </trkpt>
      <trkpt lat="56.3353885" lon="13.6530843">
        <ele>125.109</ele>
        <time>2014-05-21T17:58:22Z</time>
      </trkpt>
      <trkpt lat="56.3354481" lon="13.6531797">
        <ele>125.109</ele>
        <time>2014-05-21T17:58:24Z</time>
      </trkpt>
      <trkpt lat="56.3355641" lon="13.6534201">
        <ele>124.628</ele>
        <time>2014-05-21T17:58:30Z</time>
      </trkpt>
      <trkpt lat="56.3356578" lon="13.6536985">
        <ele>123.667</ele>
        <time>2014-05-21T17:58:35Z</time>
      </trkpt>
      <trkpt lat="56.3356961" lon="13.6539813">
        <ele>122.705</ele>
        <time>2014-05-21T17:58:40Z</time>
      </trkpt>
      <trkpt lat="56.3356847" lon="13.6543312">
        <ele>123.667</ele>
        <time>2014-05-21T17:58:46Z</time>
      </trkpt>
      <trkpt lat="56.3356703" lon="13.6546058">
        <ele>124.628</ele>
        <time>2014-05-21T17:58:51Z</time>
      </trkpt>
      <trkpt lat="56.3356792" lon="13.654698">
        <ele>125.589</ele>
        <time>2014-05-21T17:58:53Z</time>
      </trkpt>
      <trkpt lat="56.3356973" lon="13.6548623">
        <ele>127.031</ele>
        <time>2014-05-21T17:58:57Z</time>
      </trkpt>
      <trkpt lat="56.3357015" lon="13.6550108">
        <ele>127.993</ele>
        <time>2014-05-21T17:59:00Z</time>
      </trkpt>
      <trkpt lat="56.3357123" lon="13.6550476">
        <ele>127.993</ele>
        <time>2014-05-21T17:59:01Z</time>
      </trkpt>
      <trkpt lat="56.3357484" lon="13.6550997">
        <ele>127.993</ele>
        <time>2014-05-21T17:59:03Z</time>
      </trkpt>
      <trkpt lat="56.3357955" lon="13.655127">
        <ele>127.512</ele>
        <time>2014-05-21T17:59:05Z</time>
      </trkpt>
      <trkpt lat="56.3359257" lon="13.6551741">
        <ele>127.512</ele>
        <time>2014-05-21T17:59:10Z</time>
      </trkpt>
      <trkpt lat="56.3360657" lon="13.6552543">
        <ele>128.473</ele>
        <time>2014-05-21T17:59:15Z</time>
      </trkpt>
      <trkpt lat="56.3362029" lon="13.6553506">
        <ele>128.954</ele>
        <time>2014-05-21T17:59:20Z</time>
      </trkpt>
      <trkpt lat="56.3362909" lon="13.6554851">
        <ele>130.396</ele>
        <time>2014-05-21T17:59:24Z</time>
      </trkpt>
      <trkpt lat="56.336339" lon="13.6555733">
        <ele>130.877</ele>
        <time>2014-05-21T17:59:26Z</time>
      </trkpt>
      <trkpt lat="56.3363618" lon="13.65577">
        <ele>132.319</ele>
        <time>2014-05-21T17:59:30Z</time>
      </trkpt>
      <trkpt lat="56.3363707" lon="13.6558919">
        <ele>132.799</ele>
        <time>2014-05-21T17:59:33Z</time>
      </trkpt>
      <trkpt lat="56.3363783" lon="13.656029">
        <ele>133.28</ele>
        <time>2014-05-21T17:59:36Z</time>
      </trkpt>
      <trkpt lat="56.3364122" lon="13.6562007">
        <ele>133.76</ele>
        <time>2014-05-21T17:59:40Z</time>
      </trkpt>
      <trkpt lat="56.3364944" lon="13.6563209">
        <ele>134.722</ele>
        <time>2014-05-21T17:59:44Z</time>
      </trkpt>
      <trkpt lat="56.3365306" lon="13.6563676">
        <ele>134.722</ele>
        <time>2014-05-21T17:59:46Z</time>
      </trkpt>
      <trkpt lat="56.3365691" lon="13.6564037">
        <ele>134.722</ele>
        <time>2014-05-21T17:59:48Z</time>
      </trkpt>
      <trkpt lat="56.3366152" lon="13.6564363">
        <ele>135.203</ele>
        <time>2014-05-21T17:59:50Z</time>
      </trkpt>
      <trkpt lat="56.3367386" lon="13.656542">
        <ele>135.203</ele>
        <time>2014-05-21T17:59:55Z</time>
      </trkpt>
      <trkpt lat="56.3368042" lon="13.6566057">
        <ele>135.203</ele>
        <time>2014-05-21T17:59:58Z</time>
      </trkpt>
      <trkpt lat="56.3369296" lon="13.6566249">
        <ele>134.241</ele>
        <time>2014-05-21T18:00:04Z</time>
      </trkpt>
      <trkpt lat="56.3370311" lon="13.6566203">
        <ele>133.76</ele>
        <time>2014-05-21T18:00:08Z</time>
      </trkpt>
      <trkpt lat="56.3371337" lon="13.6565996">
        <ele>133.28</ele>
        <time>2014-05-21T18:00:12Z</time>
      </trkpt>
      <trkpt lat="56.3372513" lon="13.6567261">
        <ele>132.319</ele>
        <time>2014-05-21T18:00:16Z</time>
      </trkpt>
      <trkpt lat="56.3373008" lon="13.6568911">
        <ele>131.357</ele>
        <time>2014-05-21T18:00:19Z</time>
      </trkpt>
      <trkpt lat="56.3373145" lon="13.6570554">
        <ele>130.877</ele>
        <time>2014-05-21T18:00:23Z</time>
      </trkpt>
      <trkpt lat="56.3372698" lon="13.6572293">
        <ele>130.877</ele>
        <time>2014-05-21T18:00:27Z</time>
      </trkpt>
      <trkpt lat="56.3372393" lon="13.6574108">
        <ele>131.357</ele>
        <time>2014-05-21T18:00:31Z</time>
      </trkpt>
      <trkpt lat="56.337171" lon="13.6576392">
        <ele>130.877</ele>
        <time>2014-05-21T18:00:37Z</time>
      </trkpt>
      <trkpt lat="56.3371265" lon="13.6577512">
        <ele>130.877</ele>
        <time>2014-05-21T18:00:40Z</time>
      </trkpt>
      <trkpt lat="56.3371068" lon="13.6577883">
        <ele>130.877</ele>
        <time>2014-05-21T18:00:41Z</time>
      </trkpt>
      <trkpt lat="56.3369711" lon="13.6579868">
        <ele>130.396</ele>
        <time>2014-05-21T18:00:47Z</time>
      </trkpt>
      <trkpt lat="56.3368701" lon="13.658068">
        <ele>130.396</ele>
        <time>2014-05-21T18:00:52Z</time>
      </trkpt>
      <trkpt lat="56.3367607" lon="13.6580028">
        <ele>129.435</ele>
        <time>2014-05-21T18:00:57Z</time>
      </trkpt>
      <trkpt lat="56.3367245" lon="13.6579682">
        <ele>129.435</ele>
        <time>2014-05-21T18:00:59Z</time>
      </trkpt>
      <trkpt lat="56.3366623" lon="13.6579027">
        <ele>128.954</ele>
        <time>2014-05-21T18:01:02Z</time>
      </trkpt>
      <trkpt lat="56.336553" lon="13.6578091">
        <ele>128.473</ele>
        <time>2014-05-21T18:01:07Z</time>
      </trkpt>
      <trkpt lat="56.3364301" lon="13.6577163">
        <ele>127.512</ele>
        <time>2014-05-21T18:01:12Z</time>
      </trkpt>
      <trkpt lat="56.3363011" lon="13.6576061">
        <ele>126.551</ele>
        <time>2014-05-21T18:01:16Z</time>
      </trkpt>
      <trkpt lat="56.3361987" lon="13.6573792">
        <ele>123.667</ele>
        <time>2014-05-21T18:01:22Z</time>
      </trkpt>
      <trkpt lat="56.336192" lon="13.6571682">
        <ele>123.186</ele>
        <time>2014-05-21T18:01:27Z</time>
      </trkpt>
      <trkpt lat="56.3361868" lon="13.6569208">
        <ele>123.667</ele>
        <time>2014-05-21T18:01:32Z</time>
      </trkpt>
      <trkpt lat="56.3361545" lon="13.6566084">
        <ele>124.628</ele>
        <time>2014-05-21T18:01:37Z</time>
      </trkpt>
      <trkpt lat="56.3360825" lon="13.6563695">
        <ele>126.551</ele>
        <time>2014-05-21T18:01:42Z</time>
      </trkpt>
      <trkpt lat="56.336049" lon="13.6562995">
        <ele>126.07</ele>
        <time>2014-05-21T18:01:44Z</time>
      </trkpt>
      <trkpt lat="56.3358748" lon="13.6561663">
        <ele>126.07</ele>
        <time>2014-05-21T18:01:50Z</time>
      </trkpt>
      <trkpt lat="56.3357936" lon="13.6560789">
        <ele>126.07</ele>
        <time>2014-05-21T18:01:53Z</time>
      </trkpt>
      <trkpt lat="56.3357607" lon="13.6560052">
        <ele>126.07</ele>
        <time>2014-05-21T18:01:55Z</time>
      </trkpt>
      <trkpt lat="56.3356635" lon="13.6558303">
        <ele>124.628</ele>
        <time>2014-05-21T18:02:00Z</time>
      </trkpt>
      <trkpt lat="56.3356235" lon="13.6556221">
        <ele>123.667</ele>
        <time>2014-05-21T18:02:05Z</time>
      </trkpt>
      <trkpt lat="56.3355621" lon="13.6553266">
        <ele>123.186</ele>
        <time>2014-05-21T18:02:11Z</time>
      </trkpt>
      <trkpt lat="56.3355252" lon="13.6550537">
        <ele>123.186</ele>
        <time>2014-05-21T18:02:16Z</time>
      </trkpt>
      <trkpt lat="56.3355179" lon="13.6549282">
        <ele>123.667</ele>
        <time>2014-05-21T18:02:18Z</time>
      </trkpt>
      <trkpt lat="56.3355059" lon="13.6546581">
        <ele>125.109</ele>
        <time>2014-05-21T18:02:23Z</time>
      </trkpt>
      <trkpt lat="56.3354963" lon="13.6544923">
        <ele>126.07</ele>
        <time>2014-05-21T18:02:27Z</time>
      </trkpt>
      <trkpt lat="56.3354632" lon="13.6543619">
        <ele>126.551</ele>
        <time>2014-05-21T18:02:31Z</time>
      </trkpt>
      <trkpt lat="56.3354175" lon="13.6541742">
        <ele>127.031</ele>
        <time>2014-05-21T18:02:35Z</time>
      </trkpt>
      <trkpt lat="56.3353375" lon="13.6540334">
        <ele>127.031</ele>
        <time>2014-05-21T18:02:39Z</time>
      </trkpt>
      <trkpt lat="56.3351783" lon="13.6538194">
        <ele>127.993</ele>
        <time>2014-05-21T18:02:45Z</time>
      </trkpt>
      <trkpt lat="56.3350754" lon="13.6537377">
        <ele>127.512</ele>
        <time>2014-05-21T18:02:49Z</time>
      </trkpt>
      <trkpt lat="56.3349383" lon="13.653679">
        <ele>127.512</ele>
        <time>2014-05-21T18:02:54Z</time>
      </trkpt>
      <trkpt lat="56.3349133" lon="13.6536598">
        <ele>127.512</ele>
        <time>2014-05-21T18:02:55Z</time>
      </trkpt>
      <trkpt lat="56.3348079" lon="13.6535494">
        <ele>126.551</ele>
        <time>2014-05-21T18:03:00Z</time>
      </trkpt>
      <trkpt lat="56.3347348" lon="13.6534962">
        <ele>126.07</ele>
        <time>2014-05-21T18:03:03Z</time>
      </trkpt>
      <trkpt lat="56.3346517" lon="13.6534582">
        <ele>125.589</ele>
        <time>2014-05-21T18:03:06Z</time>
      </trkpt>
      <trkpt lat="56.3345665" lon="13.6533848">
        <ele>124.628</ele>
        <time>2014-05-21T18:03:10Z</time>
      </trkpt>
      <trkpt lat="56.3344639" lon="13.6532751">
        <ele>124.628</ele>
        <time>2014-05-21T18:03:14Z</time>
      </trkpt>
      <trkpt lat="56.3343659" lon="13.653146">
        <ele>125.109</ele>
        <time>2014-05-21T18:03:18Z</time>
      </trkpt>
      <trkpt lat="56.3343219" lon="13.6530806">
        <ele>125.589</ele>
        <time>2014-05-21T18:03:20Z</time>
      </trkpt>
      <trkpt lat="56.3342034" lon="13.6529305">
        <ele>126.07</ele>
        <time>2014-05-21T18:03:25Z</time>
      </trkpt>
      <trkpt lat="56.3340819" lon="13.6527476">
        <ele>127.031</ele>
        <time>2014-05-21T18:03:31Z</time>
      </trkpt>
      <trkpt lat="56.3339871" lon="13.652644">
        <ele>127.031</ele>
        <time>2014-05-21T18:03:36Z</time>
      </trkpt>
      <trkpt lat="56.333861" lon="13.6525958">
        <ele>126.551</ele>
        <time>2014-05-21T18:03:41Z</time>
      </trkpt>
      <trkpt lat="56.3337991" lon="13.6526146">
        <ele>126.551</ele>
        <time>2014-05-21T18:03:44Z</time>
      </trkpt>
      <trkpt lat="56.333708" lon="13.652692">
        <ele>126.551</ele>
        <time>2014-05-21T18:03:50Z</time>
      </trkpt>
      <trkpt lat="56.3336075" lon="13.6528704">
        <ele>126.551</ele>
        <time>2014-05-21T18:03:56Z</time>
      </trkpt>
      <trkpt lat="56.3335449" lon="13.653125">
        <ele>126.551</ele>
        <time>2014-05-21T18:04:02Z</time>
      </trkpt>
      <trkpt lat="56.3335165" lon="13.6533107">
        <ele>126.551</ele>
        <time>2014-05-21T18:04:06Z</time>
      </trkpt>
      <trkpt lat="56.3334629" lon="13.6535205">
        <ele>127.031</ele>
        <time>2014-05-21T18:04:11Z</time>
      </trkpt>
      <trkpt lat="56.3333723" lon="13.653675">
        <ele>127.031</ele>
        <time>2014-05-21T18:04:16Z</time>
      </trkpt>
      <trkpt lat="56.3332674" lon="13.6537609">
        <ele>127.512</ele>
        <time>2014-05-21T18:04:21Z</time>
      </trkpt>
      <trkpt lat="56.3331176" lon="13.6538012">
        <ele>127.512</ele>
        <time>2014-05-21T18:04:27Z</time>
      </trkpt>
      <trkpt lat="56.3329818" lon="13.6537897">
        <ele>127.512</ele>
        <time>2014-05-21T18:04:33Z</time>
      </trkpt>
      <trkpt lat="56.3328737" lon="13.6537401">
        <ele>127.512</ele>
        <time>2014-05-21T18:04:38Z</time>
      </trkpt>
      <trkpt lat="56.3327297" lon="13.6536091">
        <ele>127.512</ele>
        <time>2014-05-21T18:04:44Z</time>
      </trkpt>
      <trkpt lat="56.3325888" lon="13.6534465">
        <ele>127.031</ele>
        <time>2014-05-21T18:04:50Z</time>
      </trkpt>
      <trkpt lat="56.3324575" lon="13.6533118">
        <ele>126.551</ele>
        <time>2014-05-21T18:04:55Z</time>
      </trkpt>
      <trkpt lat="56.3323437" lon="13.653094">
        <ele>125.109</ele>
        <time>2014-05-21T18:05:00Z</time>
      </trkpt>
      <trkpt lat="56.3322808" lon="13.6528347">
        <ele>123.667</ele>
        <time>2014-05-21T18:05:05Z</time>
      </trkpt>
      <trkpt lat="56.3322417" lon="13.6525746">
        <ele>122.705</ele>
        <time>2014-05-21T18:05:10Z</time>
      </trkpt>
      <trkpt lat="56.3322652" lon="13.6522828">
        <ele>121.744</ele>
        <time>2014-05-21T18:05:16Z</time>
      </trkpt>
      <trkpt lat="56.3323602" lon="13.6521061">
        <ele>121.264</ele>
        <time>2014-05-21T18:05:21Z</time>
      </trkpt>
      <trkpt lat="56.3324658" lon="13.6518824">
        <ele>119.821</ele>
        <time>2014-05-21T18:05:27Z</time>
      </trkpt>
      <trkpt lat="56.3325306" lon="13.6517073">
        <ele>118.86</ele>
        <time>2014-05-21T18:05:31Z</time>
      </trkpt>
      <trkpt lat="56.3325299" lon="13.6514375">
        <ele>118.379</ele>
        <time>2014-05-21T18:05:36Z</time>
      </trkpt>
      <trkpt lat="56.332501" lon="13.6511339">
        <ele>118.379</ele>
        <time>2014-05-21T18:05:41Z</time>
      </trkpt>
      <trkpt lat="56.3325054" lon="13.650601">
        <ele>117.418</ele>
        <time>2014-05-21T18:05:50Z</time>
      </trkpt>
      <trkpt lat="56.3325102" lon="13.6502461">
        <ele>116.938</ele>
        <time>2014-05-21T18:05:56Z</time>
      </trkpt>
      <trkpt lat="56.332511" lon="13.6499266">
        <ele>116.938</ele>
        <time>2014-05-21T18:06:02Z</time>
      </trkpt>
      <trkpt lat="56.3325146" lon="13.6496324">
        <ele>116.457</ele>
        <time>2014-05-21T18:06:08Z</time>
      </trkpt>
      <trkpt lat="56.3325201" lon="13.6493032">
        <ele>116.457</ele>
        <time>2014-05-21T18:06:15Z</time>
      </trkpt>
      <trkpt lat="56.3325617" lon="13.6489906">
        <ele>115.976</ele>
        <time>2014-05-21T18:06:22Z</time>
      </trkpt>
      <trkpt lat="56.3326525" lon="13.6488207">
        <ele>115.976</ele>
        <time>2014-05-21T18:06:27Z</time>
      </trkpt>
      <trkpt lat="56.3327777" lon="13.6486277">
        <ele>114.054</ele>
        <time>2014-05-21T18:06:33Z</time>
      </trkpt>
      <trkpt lat="56.3328982" lon="13.6483476">
        <ele>113.092</ele>
        <time>2014-05-21T18:06:40Z</time>
      </trkpt>
      <trkpt lat="56.3329828" lon="13.6479971">
        <ele>111.65</ele>
        <time>2014-05-21T18:06:47Z</time>
      </trkpt>
      <trkpt lat="56.3330865" lon="13.6476628">
        <ele>110.689</ele>
        <time>2014-05-21T18:06:54Z</time>
      </trkpt>
      <trkpt lat="56.333146" lon="13.6473686">
        <ele>110.689</ele>
        <time>2014-05-21T18:07:00Z</time>
      </trkpt>
      <trkpt lat="56.3331585" lon="13.6470545">
        <ele>111.65</ele>
        <time>2014-05-21T18:07:06Z</time>
      </trkpt>
      <trkpt lat="56.3332201" lon="13.6468323">
        <ele>112.612</ele>
        <time>2014-05-21T18:07:12Z</time>
      </trkpt>
      <trkpt lat="56.3333394" lon="13.6467535">
        <ele>113.092</ele>
        <time>2014-05-21T18:07:17Z</time>
      </trkpt>
      <trkpt lat="56.3334967" lon="13.6467033">
        <ele>115.496</ele>
        <time>2014-05-21T18:07:23Z</time>
      </trkpt>
      <trkpt lat="56.3336521" lon="13.6465256">
        <ele>118.86</ele>
        <time>2014-05-21T18:07:30Z</time>
      </trkpt>
      <trkpt lat="56.3337421" lon="13.6463916">
        <ele>119.821</ele>
        <time>2014-05-21T18:07:35Z</time>
      </trkpt>
      <trkpt lat="56.3338137" lon="13.6462075">
        <ele>120.302</ele>
        <time>2014-05-21T18:07:40Z</time>
      </trkpt>
      <trkpt lat="56.3338816" lon="13.6458893">
        <ele>118.86</ele>
        <time>2014-05-21T18:07:47Z</time>
      </trkpt>
      <trkpt lat="56.333923" lon="13.6455575">
        <ele>119.341</ele>
        <time>2014-05-21T18:07:53Z</time>
      </trkpt>
      <trkpt lat="56.3339763" lon="13.6452814">
        <ele>120.302</ele>
        <time>2014-05-21T18:07:59Z</time>
      </trkpt>
      <trkpt lat="56.3340184" lon="13.6449998">
        <ele>120.783</ele>
        <time>2014-05-21T18:08:05Z</time>
      </trkpt>
      <trkpt lat="56.3340557" lon="13.6447538">
        <ele>119.821</ele>
        <time>2014-05-21T18:08:10Z</time>
      </trkpt>
      <trkpt lat="56.3341027" lon="13.6444298">
        <ele>118.379</ele>
        <time>2014-05-21T18:08:16Z</time>
      </trkpt>
      <trkpt lat="56.3341448" lon="13.6441077">
        <ele>117.418</ele>
        <time>2014-05-21T18:08:22Z</time>
      </trkpt>
      <trkpt lat="56.334197" lon="13.6437789">
        <ele>116.457</ele>
        <time>2014-05-21T18:08:29Z</time>
      </trkpt>
      <trkpt lat="56.3342706" lon="13.6434451">
        <ele>115.496</ele>
        <time>2014-05-21T18:08:35Z</time>
      </trkpt>
      <trkpt lat="56.3343676" lon="13.6432379">
        <ele>116.457</ele>
        <time>2014-05-21T18:08:40Z</time>
      </trkpt>
      <trkpt lat="56.3344759" lon="13.6430075">
        <ele>117.418</ele>
        <time>2014-05-21T18:08:46Z</time>
      </trkpt>
      <trkpt lat="56.3346187" lon="13.6427146">
        <ele>115.496</ele>
        <time>2014-05-21T18:08:53Z</time>
      </trkpt>
      <trkpt lat="56.3347291" lon="13.6425428">
        <ele>115.015</ele>
        <time>2014-05-21T18:08:58Z</time>
      </trkpt>
      <trkpt lat="56.3348056" lon="13.6423211">
        <ele>115.976</ele>
        <time>2014-05-21T18:09:03Z</time>
      </trkpt>
      <trkpt lat="56.334876" lon="13.6421404">
        <ele>116.938</ele>
        <time>2014-05-21T18:09:07Z</time>
      </trkpt>
      <trkpt lat="56.3349828" lon="13.6420557">
        <ele>117.899</ele>
        <time>2014-05-21T18:09:11Z</time>
      </trkpt>
      <trkpt lat="56.3351402" lon="13.6419009">
        <ele>119.821</ele>
        <time>2014-05-21T18:09:17Z</time>
      </trkpt>
      <trkpt lat="56.3352895" lon="13.6417824">
        <ele>121.744</ele>
        <time>2014-05-21T18:09:23Z</time>
      </trkpt>
      <trkpt lat="56.3353277" lon="13.641733">
        <ele>122.225</ele>
        <time>2014-05-21T18:09:25Z</time>
      </trkpt>
      <trkpt lat="56.3354655" lon="13.6417745">
        <ele>123.667</ele>
        <time>2014-05-21T18:09:30Z</time>
      </trkpt>
      <trkpt lat="56.3356216" lon="13.6420295">
        <ele>123.667</ele>
        <time>2014-05-21T18:09:38Z</time>
      </trkpt>
      <trkpt lat="56.3356675" lon="13.6421367">
        <ele>123.186</ele>
        <time>2014-05-21T18:09:41Z</time>
      </trkpt>
      <trkpt lat="56.3357517" lon="13.6423158">
        <ele>123.186</ele>
        <time>2014-05-21T18:09:46Z</time>
      </trkpt>
      <trkpt lat="56.3358293" lon="13.6425022">
        <ele>123.186</ele>
        <time>2014-05-21T18:09:51Z</time>
      </trkpt>
      <trkpt lat="56.3358441" lon="13.6425411">
        <ele>123.186</ele>
        <time>2014-05-21T18:09:52Z</time>
      </trkpt>
      <trkpt lat="56.3359165" lon="13.6427428">
        <ele>123.667</ele>
        <time>2014-05-21T18:09:58Z</time>
      </trkpt>
      <trkpt lat="56.3359491" lon="13.6428019">
        <ele>123.667</ele>
        <time>2014-05-21T18:10:00Z</time>
      </trkpt>
      <trkpt lat="56.335968" lon="13.6428277">
        <ele>123.667</ele>
        <time>2014-05-21T18:10:01Z</time>
      </trkpt>
      <trkpt lat="56.33606" lon="13.6429185">
        <ele>123.186</ele>
        <time>2014-05-21T18:10:05Z</time>
      </trkpt>
      <trkpt lat="56.3362334" lon="13.6430691">
        <ele>123.667</ele>
        <time>2014-05-21T18:10:11Z</time>
      </trkpt>
      <trkpt lat="56.3362984" lon="13.6430971">
        <ele>123.667</ele>
        <time>2014-05-21T18:10:14Z</time>
      </trkpt>
      <trkpt lat="56.3364096" lon="13.643166">
        <ele>123.667</ele>
        <time>2014-05-21T18:10:19Z</time>
      </trkpt>
      <trkpt lat="56.3365282" lon="13.6432212">
        <ele>123.667</ele>
        <time>2014-05-21T18:10:24Z</time>
      </trkpt>
      <trkpt lat="56.3366149" lon="13.6432682">
        <ele>124.147</ele>
        <time>2014-05-21T18:10:28Z</time>
      </trkpt>
      <trkpt lat="56.3367316" lon="13.6433718">
        <ele>124.628</ele>
        <time>2014-05-21T18:10:33Z</time>
      </trkpt>
      <trkpt lat="56.3368208" lon="13.6434758">
        <ele>125.109</ele>
        <time>2014-05-21T18:10:37Z</time>
      </trkpt>
      <trkpt lat="56.3369007" lon="13.6436123">
        <ele>126.07</ele>
        <time>2014-05-21T18:10:41Z</time>
      </trkpt>
      <trkpt lat="56.3369657" lon="13.6437861">
        <ele>127.031</ele>
        <time>2014-05-21T18:10:45Z</time>
      </trkpt>
      <trkpt lat="56.336987" lon="13.6438791">
        <ele>128.473</ele>
        <time>2014-05-21T18:10:47Z</time>
      </trkpt>
      <trkpt lat="56.3369736" lon="13.6441755">
        <ele>128.954</ele>
        <time>2014-05-21T18:10:53Z</time>
      </trkpt>
      <trkpt lat="56.3369808" lon="13.6444087">
        <ele>128.954</ele>
        <time>2014-05-21T18:10:58Z</time>
      </trkpt>
      <trkpt lat="56.3370316" lon="13.6446318">
        <ele>128.954</ele>
        <time>2014-05-21T18:11:03Z</time>
      </trkpt>
      <trkpt lat="56.3371021" lon="13.644818">
        <ele>129.915</ele>
        <time>2014-05-21T18:11:07Z</time>
      </trkpt>
      <trkpt lat="56.337187" lon="13.6451089">
        <ele>130.877</ele>
        <time>2014-05-21T18:11:13Z</time>
      </trkpt>
      <trkpt lat="56.3372083" lon="13.645367">
        <ele>131.838</ele>
        <time>2014-05-21T18:11:18Z</time>
      </trkpt>
      <trkpt lat="56.3372238" lon="13.6456908">
        <ele>133.76</ele>
        <time>2014-05-21T18:11:24Z</time>
      </trkpt>
      <trkpt lat="56.3372695" lon="13.6459331">
        <ele>133.76</ele>
        <time>2014-05-21T18:11:29Z</time>
      </trkpt>
      <trkpt lat="56.3373309" lon="13.6461917">
        <ele>133.76</ele>
        <time>2014-05-21T18:11:35Z</time>
      </trkpt>
      <trkpt lat="56.3374451" lon="13.6464">
        <ele>134.241</ele>
        <time>2014-05-21T18:11:41Z</time>
      </trkpt>
      <trkpt lat="56.3375792" lon="13.6465764">
        <ele>133.28</ele>
        <time>2014-05-21T18:11:47Z</time>
      </trkpt>
      <trkpt lat="56.3377096" lon="13.6466653">
        <ele>132.799</ele>
        <time>2014-05-21T18:11:53Z</time>
      </trkpt>
      <trkpt lat="56.3378248" lon="13.6467714">
        <ele>133.28</ele>
        <time>2014-05-21T18:11:58Z</time>
      </trkpt>
      <trkpt lat="56.3379423" lon="13.6468688">
        <ele>133.76</ele>
        <time>2014-05-21T18:12:03Z</time>
      </trkpt>
      <trkpt lat="56.3380661" lon="13.6470086">
        <ele>134.722</ele>
        <time>2014-05-21T18:12:09Z</time>
      </trkpt>
      <trkpt lat="56.3381391" lon="13.6472123">
        <ele>135.683</ele>
        <time>2014-05-21T18:12:14Z</time>
      </trkpt>
      <trkpt lat="56.3381273" lon="13.6474344">
        <ele>134.241</ele>
        <time>2014-05-21T18:12:20Z</time>
      </trkpt>
      <trkpt lat="56.338104" lon="13.6476419">
        <ele>133.76</ele>
        <time>2014-05-21T18:12:25Z</time>
      </trkpt>
      <trkpt lat="56.3381376" lon="13.6478027">
        <ele>133.76</ele>
        <time>2014-05-21T18:12:29Z</time>
      </trkpt>
      <trkpt lat="56.3381729" lon="13.6478198">
        <ele>132.799</ele>
        <time>2014-05-21T18:12:32Z</time>
      </trkpt>
      <trkpt lat="56.338264" lon="13.6477747">
        <ele>131.357</ele>
        <time>2014-05-21T18:12:37Z</time>
      </trkpt>
      <trkpt lat="56.3383055" lon="13.6477613">
        <ele>131.357</ele>
        <time>2014-05-21T18:12:39Z</time>
      </trkpt>
      <trkpt lat="56.3384033" lon="13.6478224">
        <ele>131.357</ele>
        <time>2014-05-21T18:12:44Z</time>
      </trkpt>
      <trkpt lat="56.3384312" lon="13.647942">
        <ele>131.357</ele>
        <time>2014-05-21T18:12:47Z</time>
      </trkpt>
      <trkpt lat="56.3384394" lon="13.6481573">
        <ele>130.877</ele>
        <time>2014-05-21T18:12:52Z</time>
      </trkpt>
      <trkpt lat="56.3384919" lon="13.648431">
        <ele>130.877</ele>
        <time>2014-05-21T18:12:58Z</time>
      </trkpt>
      <trkpt lat="56.3385153" lon="13.6485164">
        <ele>130.877</ele>
        <time>2014-05-21T18:13:00Z</time>
      </trkpt>
      <trkpt lat="56.3385908" lon="13.6487083">
        <ele>131.838</ele>
        <time>2014-05-21T18:13:05Z</time>
      </trkpt>
      <trkpt lat="56.3386162" lon="13.6489163">
        <ele>132.319</ele>
        <time>2014-05-21T18:13:09Z</time>
      </trkpt>
      <trkpt lat="56.3385882" lon="13.6490152">
        <ele>131.838</ele>
        <time>2014-05-21T18:13:11Z</time>
      </trkpt>
      <trkpt lat="56.3384958" lon="13.6492609">
        <ele>130.396</ele>
        <time>2014-05-21T18:13:17Z</time>
      </trkpt>
      <trkpt lat="56.3384464" lon="13.649506">
        <ele>130.396</ele>
        <time>2014-05-21T18:13:21Z</time>
      </trkpt>
      <trkpt lat="56.3384121" lon="13.6499429">
        <ele>129.915</ele>
        <time>2014-05-21T18:13:27Z</time>
      </trkpt>
      <trkpt lat="56.3383561" lon="13.650326">
        <ele>129.915</ele>
        <time>2014-05-21T18:13:33Z</time>
      </trkpt>
      <trkpt lat="56.3383365" lon="13.650575">
        <ele>128.473</ele>
        <time>2014-05-21T18:13:38Z</time>
      </trkpt>
      <trkpt lat="56.3383438" lon="13.6506662">
        <ele>127.993</ele>
        <time>2014-05-21T18:13:40Z</time>
      </trkpt>
      <trkpt lat="56.3383504" lon="13.6507434">
        <ele>127.512</ele>
        <time>2014-05-21T18:13:42Z</time>
      </trkpt>
      <trkpt lat="56.3383682" lon="13.6508712">
        <ele>126.07</ele>
        <time>2014-05-21T18:13:47Z</time>
      </trkpt>
      <trkpt lat="56.3383899" lon="13.6509308">
        <ele>125.589</ele>
        <time>2014-05-21T18:13:54Z</time>
      </trkpt>
      <trkpt lat="56.3384275" lon="13.6510294">
        <ele>125.109</ele>
        <time>2014-05-21T18:14:00Z</time>
      </trkpt>
      <trkpt lat="56.3384696" lon="13.6511625">
        <ele>125.589</ele>
        <time>2014-05-21T18:14:04Z</time>
      </trkpt>
      <trkpt lat="56.3386209" lon="13.6515209">
        <ele>126.551</ele>
        <time>2014-05-21T18:14:13Z</time>
      </trkpt>
      <trkpt lat="56.3387219" lon="13.6517431">
        <ele>126.551</ele>
        <time>2014-05-21T18:14:19Z</time>
      </trkpt>
      <trkpt lat="56.3388522" lon="13.6519484">
        <ele>126.551</ele>
        <time>2014-05-21T18:14:25Z</time>
      </trkpt>
      <trkpt lat="56.3390087" lon="13.652132">
        <ele>124.628</ele>
        <time>2014-05-21T18:14:32Z</time>
      </trkpt>
      <trkpt lat="56.3391758" lon="13.6522576">
        <ele>124.147</ele>
        <time>2014-05-21T18:14:38Z</time>
      </trkpt>
      <trkpt lat="56.3394372" lon="13.6524467">
        <ele>123.186</ele>
        <time>2014-05-21T18:14:46Z</time>
      </trkpt>
      <trkpt lat="56.3396678" lon="13.6526113">
        <ele>122.705</ele>
        <time>2014-05-21T18:14:53Z</time>
      </trkpt>
      <trkpt lat="56.3399024" lon="13.6527448">
        <ele>122.705</ele>
        <time>2014-05-21T18:14:59Z</time>
      </trkpt>
      <trkpt lat="56.3401572" lon="13.6528932">
        <ele>122.225</ele>
        <time>2014-05-21T18:15:05Z</time>
      </trkpt>
      <trkpt lat="56.3404535" lon="13.6530644">
        <ele>122.225</ele>
        <time>2014-05-21T18:15:12Z</time>
      </trkpt>
      <trkpt lat="56.3407162" lon="13.6532097">
        <ele>122.225</ele>
        <time>2014-05-21T18:15:18Z</time>
      </trkpt>
      <trkpt lat="56.3409804" lon="13.6533619">
        <ele>122.225</ele>
        <time>2014-05-21T18:15:24Z</time>
      </trkpt>
      <trkpt lat="56.3413524" lon="13.6534702">
        <ele>120.302</ele>
        <time>2014-05-21T18:15:31Z</time>
      </trkpt>
      <trkpt lat="56.3417252" lon="13.6534823">
        <ele>119.341</ele>
        <time>2014-05-21T18:15:38Z</time>
      </trkpt>
      <trkpt lat="56.342046" lon="13.6534588">
        <ele>118.86</ele>
        <time>2014-05-21T18:15:44Z</time>
      </trkpt>
      <trkpt lat="56.3422127" lon="13.6534449">
        <ele>118.86</ele>
        <time>2014-05-21T18:15:47Z</time>
      </trkpt>
      <trkpt lat="56.3423227" lon="13.6534593">
        <ele>118.379</ele>
        <time>2014-05-21T18:15:49Z</time>
      </trkpt>
      <trkpt lat="56.3425835" lon="13.6533545">
        <ele>118.86</ele>
        <time>2014-05-21T18:15:54Z</time>
      </trkpt>
      <trkpt lat="56.3426375" lon="13.6531043">
        <ele>118.86</ele>
        <time>2014-05-21T18:15:57Z</time>
      </trkpt>
      <trkpt lat="56.3426376" lon="13.6529236">
        <ele>118.86</ele>
        <time>2014-05-21T18:15:59Z</time>
      </trkpt>
      <trkpt lat="56.3426425" lon="13.6525599">
        <ele>118.86</ele>
        <time>2014-05-21T18:16:03Z</time>
      </trkpt>
      <trkpt lat="56.342751" lon="13.6522823">
        <ele>119.341</ele>
        <time>2014-05-21T18:16:07Z</time>
      </trkpt>
      <trkpt lat="56.3428513" lon="13.6522506">
        <ele>118.86</ele>
        <time>2014-05-21T18:16:09Z</time>
      </trkpt>
      <trkpt lat="56.3432396" lon="13.6522193">
        <ele>118.379</ele>
        <time>2014-05-21T18:16:16Z</time>
      </trkpt>
      <trkpt lat="56.3435654" lon="13.6520716">
        <ele>117.899</ele>
        <time>2014-05-21T18:16:22Z</time>
      </trkpt>
      <trkpt lat="56.3439057" lon="13.651765">
        <ele>116.938</ele>
        <time>2014-05-21T18:16:29Z</time>
      </trkpt>
      <trkpt lat="56.3440972" lon="13.6516992">
        <ele>116.457</ele>
        <time>2014-05-21T18:16:33Z</time>
      </trkpt>
      <trkpt lat="56.3443903" lon="13.6516729">
        <ele>115.976</ele>
        <time>2014-05-21T18:16:39Z</time>
      </trkpt>
      <trkpt lat="56.3444768" lon="13.6516119">
        <ele>115.976</ele>
        <time>2014-05-21T18:16:41Z</time>
      </trkpt>
      <trkpt lat="56.3445814" lon="13.6514993">
        <ele>115.496</ele>
        <time>2014-05-21T18:16:44Z</time>
      </trkpt>
      <trkpt lat="56.3446394" lon="13.6514402">
        <ele>115.976</ele>
        <time>2014-05-21T18:16:46Z</time>
      </trkpt>
      <trkpt lat="56.34481" lon="13.6512428">
        <ele>115.976</ele>
        <time>2014-05-21T18:16:55Z</time>
      </trkpt>
      <trkpt lat="56.34491" lon="13.651115">
        <ele>115.976</ele>
        <time>2014-05-21T18:17:02Z</time>
      </trkpt>
      <trkpt lat="56.345029" lon="13.6509869">
        <ele>115.976</ele>
        <time>2014-05-21T18:17:08Z</time>
      </trkpt>
      <trkpt lat="56.3452149" lon="13.6507739">
        <ele>116.457</ele>
        <time>2014-05-21T18:17:15Z</time>
      </trkpt>
      <trkpt lat="56.3454344" lon="13.6504855">
        <ele>115.976</ele>
        <time>2014-05-21T18:17:22Z</time>
      </trkpt>
      <trkpt lat="56.3456226" lon="13.650303">
        <ele>115.976</ele>
        <time>2014-05-21T18:17:27Z</time>
      </trkpt>
      <trkpt lat="56.3459905" lon="13.6499163">
        <ele>115.976</ele>
        <time>2014-05-21T18:17:36Z</time>
      </trkpt>
      <trkpt lat="56.3460321" lon="13.6498684">
        <ele>115.976</ele>
        <time>2014-05-21T18:17:37Z</time>
      </trkpt>
      <trkpt lat="56.3463061" lon="13.649551">
        <ele>116.457</ele>
        <time>2014-05-21T18:17:44Z</time>
      </trkpt>
      <trkpt lat="56.3463438" lon="13.649505">
        <ele>116.457</ele>
        <time>2014-05-21T18:17:45Z</time>
      </trkpt>
      <trkpt lat="56.3464225" lon="13.6494251">
        <ele>116.457</ele>
        <time>2014-05-21T18:17:47Z</time>
      </trkpt>
      <trkpt lat="56.3467303" lon="13.6490681">
        <ele>115.496</ele>
        <time>2014-05-21T18:17:55Z</time>
      </trkpt>
      <trkpt lat="56.3470666" lon="13.6486739">
        <ele>115.976</ele>
        <time>2014-05-21T18:18:03Z</time>
      </trkpt>
      <trkpt lat="56.3473093" lon="13.6483988">
        <ele>115.976</ele>
        <time>2014-05-21T18:18:09Z</time>
      </trkpt>
      <trkpt lat="56.3476219" lon="13.6480565">
        <ele>115.976</ele>
        <time>2014-05-21T18:18:16Z</time>
      </trkpt>
      <trkpt lat="56.347979" lon="13.64764">
        <ele>116.457</ele>
        <time>2014-05-21T18:18:24Z</time>
      </trkpt>
      <trkpt lat="56.3482709" lon="13.6472977">
        <ele>116.938</ele>
        <time>2014-05-21T18:18:31Z</time>
      </trkpt>
      <trkpt lat="56.3485107" lon="13.6470282">
        <ele>117.418</ele>
        <time>2014-05-21T18:18:37Z</time>
      </trkpt>
      <trkpt lat="56.3487328" lon="13.6467775">
        <ele>116.938</ele>
        <time>2014-05-21T18:18:42Z</time>
      </trkpt>
      <trkpt lat="56.3488158" lon="13.6466645">
        <ele>116.457</ele>
        <time>2014-05-21T18:18:44Z</time>
      </trkpt>
      <trkpt lat="56.3488728" lon="13.6464061">
        <ele>116.938</ele>
        <time>2014-05-21T18:18:48Z</time>
      </trkpt>
      <trkpt lat="56.3488516" lon="13.6463533">
        <ele>116.938</ele>
        <time>2014-05-21T18:18:50Z</time>
      </trkpt>
      <trkpt lat="56.3488335" lon="13.6463253">
        <ele>117.418</ele>
        <time>2014-05-21T18:19:03Z</time>
      </trkpt>
    </trkseg>
  </trk>
</gpx>